createdAt,value
2019-05-29T00:01:14.055Z,89.90
2019-05-29T00:03:39.527Z,89.90
2019-05-29T00:06:10.002Z,90.00
2019-05-29T00:08:42.940Z,90.00
2019-05-29T00:11:12.273Z,90.00
2019-05-29T00:13:41.599Z,90.00
2019-05-29T00:16:10.895Z,90.10
2019-05-29T00:18:40.532Z,90.20
2019-05-29T00:21:11.583Z,90.30
2019-05-29T00:23:41.288Z,90.40
2019-05-29T00:26:10.670Z,90.70
2019-05-29T00:28:40.288Z,90.80
2019-05-29T00:31:09.977Z,91.00
2019-05-29T00:33:39.917Z,91.00
2019-05-29T00:36:10.276Z,91.10
2019-05-29T00:38:40.045Z,91.20
2019-05-29T00:41:10.806Z,91.20
2019-05-29T00:43:40.579Z,91.20
2019-05-29T00:46:09.848Z,91.00
2019-05-29T00:48:39.485Z,91.20
2019-05-29T00:51:08.941Z,91.30
2019-05-29T00:53:38.732Z,91.30
2019-05-29T00:56:08.530Z,91.40
2019-05-29T00:58:41.335Z,91.40
2019-05-29T01:01:09.374Z,91.50
2019-05-29T01:03:38.736Z,91.50
2019-05-29T01:06:08.282Z,91.80
2019-05-29T01:08:37.658Z,91.80
2019-05-29T01:11:07.037Z,91.70
2019-05-29T01:13:37.093Z,91.80
2019-05-29T01:16:06.706Z,91.80
2019-05-29T01:18:37.296Z,91.80
2019-05-29T01:21:06.663Z,91.90
2019-05-29T01:23:35.956Z,91.80
2019-05-29T01:26:05.569Z,91.80
2019-05-29T01:28:35.255Z,91.90
2019-05-29T01:31:04.887Z,91.70
2019-05-29T01:33:34.755Z,91.90
2019-05-29T01:36:04.069Z,91.80
2019-05-29T01:38:33.717Z,91.60
2019-05-29T01:41:03.014Z,91.40
2019-05-29T01:43:32.604Z,91.20
2019-05-29T01:46:02.199Z,91.10
2019-05-29T01:48:31.508Z,91.00
2019-05-29T01:51:00.882Z,91.10
2019-05-29T01:53:30.184Z,91.10
2019-05-29T01:55:59.495Z,91.20
2019-05-29T01:58:28.812Z,91.20
2019-05-29T02:00:58.507Z,91.30
2019-05-29T02:03:28.253Z,91.40
2019-05-29T02:05:57.728Z,91.50
2019-05-29T02:08:28.283Z,91.50
2019-05-29T02:10:57.710Z,91.50
2019-05-29T02:13:27.562Z,91.70
2019-05-29T02:15:56.982Z,91.70
2019-05-29T02:18:27.026Z,91.90
2019-05-29T02:20:56.397Z,92.10
2019-05-29T02:23:25.662Z,92.10
2019-05-29T02:28:28.959Z,92.10
2019-05-29T02:30:58.603Z,92.10
2019-05-29T02:33:28.371Z,92.00
2019-05-29T02:35:58.243Z,91.90
2019-05-29T02:38:27.672Z,91.90
2019-05-29T02:40:58.410Z,91.90
2019-05-29T02:43:29.740Z,91.90
2019-05-29T02:45:58.983Z,91.80
2019-05-29T02:48:30.084Z,91.80
2019-05-29T02:50:59.711Z,92.00
2019-05-29T02:53:30.738Z,92.10
2019-05-29T02:56:00.362Z,92.30
2019-05-29T02:58:30.270Z,92.60
2019-05-29T03:01:00.959Z,92.40
2019-05-29T03:03:37.962Z,92.50
2019-05-29T03:06:01.932Z,92.60
2019-05-29T03:08:34.113Z,92.70
2019-05-29T03:11:03.174Z,92.90
2019-05-29T03:13:33.629Z,93.10
2019-05-29T03:16:11.801Z,93.30
2019-05-29T03:18:35.309Z,93.30
2019-05-29T03:21:15.215Z,93.50
2019-05-29T03:23:44.499Z,93.70
2019-05-29T03:26:13.864Z,93.80
2019-05-29T03:28:43.306Z,93.90
2019-05-29T03:31:13.370Z,94.00
2019-05-29T03:33:48.799Z,94.00
2019-05-29T03:36:14.327Z,94.20
2019-05-29T03:38:45.487Z,94.10
2019-05-29T03:41:15.255Z,93.90
2019-05-29T03:43:44.801Z,94.10
2019-05-29T03:46:30.389Z,93.80
2019-05-29T03:48:45.189Z,94.00
2019-05-29T03:51:14.564Z,94.20
2019-05-29T03:53:44.226Z,94.10
2019-05-29T03:56:13.515Z,94.20
2019-05-29T03:58:43.293Z,94.00
2019-05-29T04:01:12.671Z,93.60
2019-05-29T04:03:42.392Z,93.70
2019-05-29T04:06:11.661Z,93.80
2019-05-29T04:08:41.121Z,93.70
2019-05-29T04:11:10.683Z,93.60
2019-05-29T04:13:40.048Z,93.70
2019-05-29T04:16:11.183Z,93.70
2019-05-29T04:18:41.844Z,93.60
2019-05-29T04:21:12.263Z,93.60
2019-05-29T04:23:43.081Z,93.50
2019-05-29T04:26:15.848Z,93.40
2019-05-29T04:28:45.879Z,93.30
2019-05-29T04:31:15.325Z,93.20
2019-05-29T04:33:44.699Z,93.40
2019-05-29T04:36:14.199Z,93.10
2019-05-29T04:38:43.811Z,93.00
2019-05-29T04:41:13.077Z,92.80
2019-05-29T04:43:42.550Z,92.70
2019-05-29T04:46:11.833Z,92.20
2019-05-29T04:48:41.213Z,91.90
2019-05-29T04:51:10.509Z,91.60
2019-05-29T04:53:40.039Z,91.40
2019-05-29T04:56:09.684Z,91.10
2019-05-29T04:58:39.260Z,91.10
2019-05-29T05:01:08.961Z,91.10
2019-05-29T05:03:39.426Z,91.10
2019-05-29T05:06:08.776Z,90.90
2019-05-29T05:08:39.721Z,90.60
2019-05-29T05:11:10.839Z,90.40
2019-05-29T05:13:40.424Z,90.40
2019-05-29T05:16:10.001Z,90.00
2019-05-29T05:18:40.222Z,88.60
2019-05-29T05:21:09.684Z,88.60
2019-05-29T05:23:40.294Z,87.30
2019-05-29T05:26:10.071Z,85.70
2019-05-29T05:28:44.278Z,85.60
2019-05-29T05:31:10.749Z,84.90
2019-05-29T05:33:40.980Z,84.80
2019-05-29T05:36:10.718Z,83.90
2019-05-29T05:38:41.058Z,83.30
2019-05-29T05:41:11.157Z,83.00
2019-05-29T05:43:41.319Z,82.70
2019-05-29T05:46:11.305Z,82.00
2019-05-29T05:48:41.484Z,80.40
2019-05-29T05:51:11.357Z,79.90
2019-05-29T05:53:41.754Z,79.40
2019-05-29T05:56:11.482Z,78.20
2019-05-29T05:58:41.988Z,77.90
2019-05-29T06:01:11.705Z,77.70
2019-05-29T06:03:42.594Z,77.00
2019-05-29T06:06:12.655Z,77.00
2019-05-29T06:08:42.493Z,76.30
2019-05-29T06:11:12.297Z,75.90
2019-05-29T06:13:42.728Z,75.20
2019-05-29T06:16:12.637Z,75.40
2019-05-29T06:18:43.014Z,74.90
2019-05-29T06:21:12.870Z,73.80
2019-05-29T06:23:43.581Z,73.90
2019-05-29T06:26:13.652Z,74.30
2019-05-29T06:28:43.601Z,74.40
2019-05-29T06:31:12.994Z,74.70
2019-05-29T06:33:43.667Z,74.90
2019-05-29T06:36:13.345Z,74.20
2019-05-29T06:38:44.061Z,74.20
2019-05-29T06:41:14.674Z,73.00
2019-05-29T06:43:44.658Z,72.80
2019-05-29T06:46:19.878Z,73.10
2019-05-29T06:48:59.414Z,72.70
2019-05-29T06:51:20.495Z,72.30
2019-05-29T06:53:49.810Z,71.40
2019-05-29T06:56:19.134Z,71.10
2019-05-29T06:58:48.641Z,70.30
2019-05-29T07:01:18.365Z,69.30
2019-05-29T07:03:48.284Z,68.90
2019-05-29T07:06:17.747Z,68.60
2019-05-29T07:08:49.649Z,68.10
2019-05-29T07:11:18.205Z,67.20
2019-05-29T07:13:50.127Z,67.00
2019-05-29T07:16:18.975Z,66.40
2019-05-29T07:19:23.207Z,65.90
2019-05-29T07:21:19.910Z,65.80
2019-05-29T07:23:49.187Z,65.50
2019-05-29T07:26:18.663Z,65.90
2019-05-29T07:29:06.498Z,65.70
2019-05-29T07:31:19.472Z,64.90
2019-05-29T07:33:48.752Z,64.80
2019-05-29T07:36:18.700Z,64.40
2019-05-29T07:38:57.615Z,64.40
2019-05-29T07:41:19.328Z,64.90
2019-05-29T07:43:48.660Z,64.80
2019-05-29T07:46:18.357Z,64.20
2019-05-29T07:48:49.975Z,63.20
2019-05-29T07:51:19.120Z,62.60
2019-05-29T07:53:48.822Z,59.80
2019-05-29T07:56:22.512Z,60.60
2019-05-29T07:59:01.820Z,60.90
2019-05-29T08:01:21.016Z,60.40
2019-05-29T08:03:50.717Z,60.40
2019-05-29T08:06:20.621Z,61.40
2019-05-29T08:08:49.919Z,61.30
2019-05-29T08:11:19.216Z,61.10
2019-05-29T08:13:49.851Z,60.50
2019-05-29T08:16:19.782Z,60.00
2019-05-29T08:18:52.710Z,60.00
2019-05-29T08:21:20.204Z,59.50
2019-05-29T08:23:50.799Z,58.20
2019-05-29T08:26:20.243Z,58.50
2019-05-29T08:28:50.944Z,58.10
2019-05-29T08:31:21.040Z,58.60
2019-05-29T08:33:51.233Z,58.30
2019-05-29T08:36:21.308Z,58.90
2019-05-29T08:38:51.710Z,58.30
2019-05-29T08:41:23.373Z,57.00
2019-05-29T08:43:52.882Z,55.90
2019-05-29T08:46:22.312Z,55.50
2019-05-29T08:48:52.297Z,54.30
2019-05-29T08:51:22.706Z,55.00
2019-05-29T08:53:54.605Z,54.10
2019-05-29T08:56:23.290Z,51.60
2019-05-29T08:58:53.142Z,51.30
2019-05-29T09:01:22.731Z,50.90
2019-05-29T09:03:53.326Z,50.10
2019-05-29T09:06:23.276Z,49.70
2019-05-29T09:08:54.752Z,50.10
2019-05-29T09:11:24.280Z,49.80
2019-05-29T09:13:53.841Z,49.10
2019-05-29T09:16:23.555Z,48.90
2019-05-29T09:18:52.861Z,49.00
2019-05-29T09:21:22.903Z,48.70
2019-05-29T09:23:53.329Z,49.10
2019-05-29T09:26:25.741Z,48.40
2019-05-29T09:28:53.957Z,49.00
2019-05-29T09:31:23.898Z,48.30
2019-05-29T09:33:53.975Z,46.90
2019-05-29T09:36:24.601Z,45.90
2019-05-29T09:38:54.422Z,45.50
2019-05-29T09:41:25.435Z,47.00
2019-05-29T09:43:59.831Z,45.90
2019-05-29T09:46:27.424Z,44.70
2019-05-29T09:48:57.068Z,45.00
2019-05-29T09:51:27.084Z,44.50
2019-05-29T09:53:58.256Z,43.80
2019-05-29T09:56:27.937Z,43.40
2019-05-29T09:58:58.457Z,44.10
2019-05-29T10:01:28.529Z,43.80
2019-05-29T10:03:59.994Z,43.80
2019-05-29T10:06:29.449Z,44.30
2019-05-29T10:09:00.091Z,44.30
2019-05-29T10:11:29.608Z,44.60
2019-05-29T10:14:00.394Z,44.10
2019-05-29T10:16:29.994Z,43.50
2019-05-29T10:19:00.346Z,43.30
2019-05-29T10:21:40.119Z,43.90
2019-05-29T10:24:02.148Z,43.90
2019-05-29T10:26:32.062Z,43.70
2019-05-29T10:29:08.295Z,43.60
2019-05-29T10:31:32.719Z,42.10
2019-05-29T10:34:02.007Z,42.70
2019-05-29T10:36:31.625Z,40.70
2019-05-29T10:39:00.990Z,40.40
2019-05-29T10:41:30.271Z,39.50
2019-05-29T10:43:59.870Z,38.90
2019-05-29T10:46:29.116Z,39.20
2019-05-29T10:48:59.188Z,37.40
2019-05-29T10:51:28.929Z,37.20
2019-05-29T10:53:59.231Z,38.10
2019-05-29T10:56:28.998Z,37.20
2019-05-29T10:59:00.061Z,36.70
2019-05-29T11:01:29.687Z,37.80
2019-05-29T11:03:59.140Z,36.70
2019-05-29T11:06:28.806Z,34.50
2019-05-29T11:08:58.425Z,35.30
2019-05-29T11:11:27.747Z,36.70
2019-05-29T11:13:57.414Z,37.30
2019-05-29T11:16:26.732Z,35.40
2019-05-29T11:18:57.591Z,36.00
2019-05-29T11:21:26.958Z,36.10
2019-05-29T11:23:58.226Z,35.20
2019-05-29T11:26:30.136Z,36.00
2019-05-29T11:28:59.473Z,36.10
2019-05-29T11:31:28.810Z,35.30
2019-05-29T11:33:59.262Z,34.80
2019-05-29T11:36:28.954Z,34.60
2019-05-29T11:39:03.265Z,34.50
2019-05-29T11:41:29.668Z,33.80
2019-05-29T11:43:59.020Z,33.90
2019-05-29T11:46:28.363Z,33.80
2019-05-29T11:48:59.243Z,33.80
2019-05-29T11:51:28.742Z,34.70
2019-05-29T11:53:59.471Z,34.10
2019-05-29T11:56:29.221Z,34.80
2019-05-29T11:58:59.465Z,36.30
2019-05-29T12:01:28.804Z,34.30
2019-05-29T12:04:18.418Z,33.50
2019-05-29T12:06:29.464Z,34.20
2019-05-29T12:09:01.877Z,34.60
2019-05-29T12:11:31.458Z,35.80
2019-05-29T12:14:02.499Z,33.60
2019-05-29T12:16:31.942Z,34.10
2019-05-29T12:19:02.039Z,34.00
2019-05-29T12:21:31.378Z,34.20
2019-05-29T12:24:00.803Z,32.30
2019-05-29T12:26:30.343Z,33.80
2019-05-29T12:29:07.336Z,32.10
2019-05-29T12:31:31.288Z,32.70
2019-05-29T12:34:12.855Z,32.60
2019-05-29T12:36:31.991Z,33.10
2019-05-29T12:39:02.153Z,33.50
2019-05-29T12:41:32.142Z,33.90
2019-05-29T12:44:01.672Z,33.30
2019-05-29T12:46:31.518Z,33.00
2019-05-29T12:49:01.726Z,33.40
2019-05-29T12:51:31.132Z,33.70
2019-05-29T12:54:00.490Z,34.20
2019-05-29T12:56:30.065Z,34.00
2019-05-29T12:59:00.563Z,33.60
2019-05-29T13:01:30.456Z,33.20
2019-05-29T13:04:00.460Z,33.80
2019-05-29T13:06:30.213Z,33.20
2019-05-29T13:09:00.468Z,33.20
2019-05-29T13:11:30.133Z,33.70
2019-05-29T13:14:00.577Z,33.90
2019-05-29T13:16:30.186Z,33.20
2019-05-29T13:19:00.926Z,33.50
2019-05-29T13:21:30.359Z,33.90
2019-05-29T13:24:02.209Z,33.60
2019-05-29T13:26:31.281Z,33.20
2019-05-29T13:29:01.669Z,33.10
2019-05-29T13:31:31.520Z,31.60
2019-05-29T13:34:02.043Z,32.80
2019-05-29T13:36:31.774Z,32.80
2019-05-29T13:39:02.353Z,33.60
2019-05-29T13:41:32.291Z,33.40
2019-05-29T13:44:02.736Z,32.60
2019-05-29T13:46:32.537Z,33.20
2019-05-29T13:49:02.836Z,32.10
2019-05-29T13:51:32.178Z,32.00
2019-05-29T13:54:06.897Z,32.30
2019-05-29T13:56:32.471Z,31.60
2019-05-29T13:59:02.033Z,31.80
2019-05-29T14:01:31.400Z,32.20
2019-05-29T14:04:02.353Z,32.20
2019-05-29T14:06:34.962Z,31.20
2019-05-29T14:09:07.398Z,31.40
2019-05-29T14:11:37.372Z,30.60
2019-05-29T14:14:08.018Z,30.80
2019-05-29T14:16:37.699Z,30.70
2019-05-29T14:19:07.275Z,30.20
2019-05-29T14:21:36.619Z,29.90
2019-05-29T14:24:24.391Z,29.90
2019-05-29T14:26:37.616Z,30.00
2019-05-29T14:29:07.571Z,30.60
2019-05-29T14:31:36.924Z,30.60
2019-05-29T14:34:07.543Z,30.00
2019-05-29T14:36:36.899Z,30.00
2019-05-29T14:39:07.719Z,30.20
2019-05-29T14:41:37.242Z,30.10
2019-05-29T14:44:07.926Z,30.20
2019-05-29T14:46:37.463Z,29.60
2019-05-29T14:49:06.750Z,29.90
2019-05-29T14:51:38.472Z,30.40
2019-05-29T14:54:08.872Z,30.30
2019-05-29T14:56:38.630Z,30.20
2019-05-29T14:59:09.363Z,30.50
2019-05-29T15:01:38.970Z,29.70
2019-05-29T15:04:09.605Z,30.20
2019-05-29T15:06:39.019Z,30.40
2019-05-29T15:09:10.204Z,30.00
2019-05-29T15:11:39.642Z,29.60
2019-05-29T15:14:10.156Z,30.20
2019-05-29T15:16:39.608Z,30.10
2019-05-29T15:19:09.063Z,29.90
2019-05-29T15:21:38.472Z,28.20
2019-05-29T15:24:09.220Z,26.70
2019-05-29T15:26:39.156Z,26.50
2019-05-29T15:29:12.635Z,25.10
2019-05-29T15:31:40.027Z,25.00
2019-05-29T15:34:10.293Z,24.50
2019-05-29T15:36:39.947Z,25.30
2019-05-29T15:39:10.671Z,25.50
2019-05-29T15:41:40.293Z,26.50
2019-05-29T15:44:10.748Z,27.60
2019-05-29T15:46:40.927Z,27.70
2019-05-29T15:49:11.122Z,28.90
2019-05-29T15:51:40.456Z,28.00
2019-05-29T15:54:11.094Z,27.40
2019-05-29T15:56:40.768Z,28.00
2019-05-29T15:59:12.109Z,28.20
2019-05-29T16:01:41.639Z,28.50
2019-05-29T16:04:11.697Z,28.90
2019-05-29T16:06:41.089Z,29.20
2019-05-29T16:09:10.367Z,28.30
2019-05-29T16:11:39.974Z,29.10
2019-05-29T16:14:09.250Z,28.90
2019-05-29T16:16:38.546Z,29.00
2019-05-29T16:19:08.441Z,29.30
2019-05-29T16:21:38.041Z,29.60
2019-05-29T16:24:07.373Z,29.60
2019-05-29T16:26:36.672Z,29.90
2019-05-29T16:29:06.034Z,29.40
2019-05-29T16:31:35.325Z,29.30
2019-05-29T16:34:04.720Z,29.30
2019-05-29T16:36:34.111Z,29.30
2019-05-29T16:39:04.586Z,28.60
2019-05-29T16:42:14.725Z,28.50
2019-05-29T16:44:45.172Z,28.50
2019-05-29T16:47:14.719Z,29.30
2019-05-29T16:49:44.425Z,29.40
2019-05-29T16:52:14.893Z,29.00
2019-05-29T16:54:44.697Z,28.90
2019-05-29T16:57:15.153Z,29.50
2019-05-29T16:59:44.597Z,30.00
2019-05-29T17:02:13.921Z,30.20
2019-05-29T17:04:43.577Z,30.50
2019-05-29T17:07:14.146Z,30.70
2019-05-29T17:09:43.790Z,30.70
2019-05-29T17:12:14.203Z,30.00
2019-05-29T17:14:43.651Z,29.50
2019-05-29T17:17:12.950Z,28.00
2019-05-29T17:19:42.308Z,27.50
2019-05-29T17:22:11.869Z,27.20
2019-05-29T17:24:41.700Z,27.10
2019-05-29T17:27:11.208Z,27.10
2019-05-29T17:29:40.889Z,27.60
2019-05-29T17:32:10.556Z,28.20
2019-05-29T17:34:40.104Z,27.60
2019-05-29T17:37:09.721Z,27.80
2019-05-29T17:39:40.047Z,28.00
2019-05-29T17:42:11.197Z,28.50
2019-05-29T17:44:40.846Z,28.40
2019-05-29T17:47:10.613Z,28.90
2019-05-29T17:49:39.915Z,28.80
2019-05-29T17:52:09.220Z,29.00
2019-05-29T17:54:38.573Z,29.30
2019-05-29T17:57:08.309Z,30.30
2019-05-29T17:59:38.462Z,30.70
2019-05-29T18:02:08.218Z,31.30
2019-05-29T18:04:37.540Z,31.50
2019-05-29T18:07:07.158Z,31.60
2019-05-29T18:09:36.768Z,32.10
2019-05-29T18:12:06.264Z,32.70
2019-05-29T18:14:35.563Z,33.10
2019-05-29T18:17:05.594Z,33.60
2019-05-29T18:19:35.247Z,33.90
2019-05-29T18:22:05.509Z,34.10
2019-05-29T18:24:34.840Z,34.70
2019-05-29T18:27:04.393Z,35.00
2019-05-29T18:29:33.676Z,35.20
2019-05-29T18:32:03.063Z,36.30
2019-05-29T18:34:32.744Z,36.20
2019-05-29T18:37:02.114Z,36.10
2019-05-29T18:39:32.326Z,36.30
2019-05-29T18:42:02.256Z,36.30
2019-05-29T18:44:32.737Z,36.60
2019-05-29T18:47:02.731Z,36.90
2019-05-29T18:49:32.713Z,37.30
2019-05-29T18:52:01.995Z,37.70
2019-05-29T18:54:32.998Z,37.80
2019-05-29T18:57:14.604Z,38.30
2019-05-29T18:59:33.720Z,38.70
2019-05-29T19:02:03.090Z,39.30
2019-05-29T19:04:32.343Z,40.00
2019-05-29T19:07:01.744Z,40.50
2019-05-29T19:09:32.018Z,40.90
2019-05-29T19:12:04.395Z,41.70
2019-05-29T19:14:34.112Z,42.50
2019-05-29T19:17:03.383Z,43.30
2019-05-29T19:19:32.799Z,43.70
2019-05-29T19:22:02.432Z,43.90
2019-05-29T19:24:32.843Z,44.10
2019-05-29T19:27:02.536Z,44.50
2019-05-29T19:29:33.363Z,44.90
2019-05-29T19:32:03.867Z,45.10
2019-05-29T19:34:33.717Z,45.50
2019-05-29T19:37:03.080Z,45.60
2019-05-29T19:39:32.377Z,45.70
2019-05-29T19:42:01.897Z,45.60
2019-05-29T19:44:32.362Z,46.00
2019-05-29T19:47:02.310Z,46.40
2019-05-29T19:49:32.994Z,46.80
2019-05-29T19:52:02.418Z,47.00
2019-05-29T19:54:31.697Z,47.30
2019-05-29T19:57:01.175Z,47.50
2019-05-29T19:59:32.014Z,47.90
2019-05-29T20:02:04.058Z,48.20
2019-05-29T20:04:34.743Z,49.00
2019-05-29T20:07:04.407Z,49.00
2019-05-29T20:09:33.681Z,49.50
2019-05-29T20:12:03.054Z,49.20
2019-05-29T20:14:32.311Z,49.70
2019-05-29T20:17:01.853Z,50.50
2019-05-29T20:19:35.511Z,50.30
2019-05-29T20:22:02.631Z,51.20
2019-05-29T20:24:32.787Z,51.90
2019-05-29T20:27:02.492Z,52.60
2019-05-29T20:29:32.391Z,52.40
2019-05-29T20:32:02.311Z,52.60
2019-05-29T20:34:32.702Z,53.10
2019-05-29T20:37:02.146Z,53.30
2019-05-29T20:39:32.842Z,53.30
2019-05-29T20:42:02.621Z,53.30
2019-05-29T20:44:32.576Z,53.50
2019-05-29T20:47:02.390Z,53.50
2019-05-29T20:49:31.972Z,53.50
2019-05-29T20:52:01.298Z,53.60
2019-05-29T20:54:31.591Z,53.70
2019-05-29T20:57:10.825Z,53.30
2019-05-29T20:59:42.952Z,53.20
2019-05-29T21:02:12.348Z,53.30
2019-05-29T21:04:42.761Z,53.90
2019-05-29T21:07:12.414Z,54.20
2019-05-29T21:09:43.192Z,54.70
2019-05-29T21:12:13.018Z,54.80
2019-05-29T21:14:42.522Z,55.30
2019-05-29T21:17:12.886Z,55.20
2019-05-29T21:19:42.508Z,55.30
2019-05-29T21:22:12.142Z,55.30
2019-05-29T21:24:46.473Z,55.50
2019-05-29T21:27:12.804Z,55.40
2019-05-29T21:29:43.368Z,55.60
2019-05-29T21:32:13.107Z,55.90
2019-05-29T21:34:42.405Z,56.50
2019-05-29T21:37:11.963Z,57.20
2019-05-29T21:39:42.416Z,57.80
2019-05-29T21:42:12.089Z,57.80
2019-05-29T21:44:41.356Z,58.10
2019-05-29T21:47:11.080Z,58.30
2019-05-29T21:49:41.009Z,58.40
2019-05-29T21:52:11.258Z,57.90
2019-05-29T21:54:41.462Z,57.10
2019-05-29T21:57:11.220Z,57.60
2019-05-29T21:59:41.636Z,57.50
2019-05-29T22:02:11.686Z,57.30
2019-05-29T22:04:42.232Z,57.30
2019-05-29T22:07:12.156Z,57.80
2019-05-29T22:09:41.639Z,58.20
2019-05-29T22:12:11.035Z,58.50
2019-05-29T22:14:40.423Z,58.90
2019-05-29T22:17:10.276Z,59.60
2019-05-29T22:19:39.758Z,60.10
2019-05-29T22:22:09.671Z,60.50
2019-05-29T22:24:39.567Z,61.10
2019-05-29T22:27:08.887Z,61.30
2019-05-29T22:29:38.430Z,61.70
2019-05-29T22:32:07.803Z,62.50
2019-05-29T22:34:39.522Z,62.80
2019-05-29T22:37:08.784Z,62.60
2019-05-29T22:39:38.428Z,62.10
2019-05-29T22:42:07.767Z,62.90
2019-05-29T22:44:37.409Z,62.40
2019-05-29T22:47:06.712Z,62.60
2019-05-29T22:49:36.011Z,62.60
2019-05-29T22:52:05.557Z,63.20
2019-05-29T22:54:35.638Z,63.40
2019-05-29T22:57:05.231Z,63.60
2019-05-29T22:59:35.431Z,64.40
2019-05-29T23:02:05.127Z,64.40
2019-05-29T23:04:34.378Z,64.50
2019-05-29T23:07:03.645Z,64.90
2019-05-29T23:09:33.451Z,64.20
2019-05-29T23:12:03.649Z,64.30
2019-05-29T23:14:34.174Z,64.50
2019-05-29T23:17:04.072Z,64.70
2019-05-29T23:19:33.391Z,65.10
2019-05-29T23:22:02.872Z,65.40
2019-05-29T23:24:32.661Z,65.90
2019-05-29T23:27:03.025Z,66.10
2019-05-29T23:29:47.913Z,66.30
2019-05-29T23:32:03.438Z,66.70
2019-05-29T23:34:32.797Z,66.70
2019-05-29T23:37:03.301Z,67.00
2019-05-29T23:39:33.327Z,67.30
2019-05-29T23:42:03.623Z,67.50
2019-05-29T23:44:33.067Z,67.70
2019-05-29T23:47:03.952Z,68.00
2019-05-29T23:49:33.485Z,68.30
2019-05-29T23:52:04.898Z,68.60
2019-05-29T23:54:34.454Z,69.00
2019-05-29T23:57:04.188Z,69.30
2019-05-29T23:59:33.915Z,69.60
